createdAt,value
2022-10-11T00:00:21.411Z,17
2022-10-11T00:01:21.398Z,14
2022-10-11T00:02:21.412Z,15
2022-10-11T00:03:21.413Z,16
2022-10-11T00:04:21.399Z,16
2022-10-11T00:05:21.400Z,12
2022-10-11T00:06:21.413Z,13
2022-10-11T00:07:21.414Z,14
2022-10-11T00:08:21.401Z,11
2022-10-11T00:09:21.401Z,12
2022-10-11T00:10:21.414Z,12
2022-10-11T00:11:21.415Z,12
2022-10-11T00:12:21.402Z,12
2022-10-11T00:13:21.415Z,13
2022-10-11T00:14:21.416Z,12
2022-10-11T00:15:21.416Z,13
2022-10-11T00:16:21.416Z,13
2022-10-11T00:17:21.417Z,14
2022-10-11T00:18:21.417Z,13
2022-10-11T00:19:21.417Z,9
2022-10-11T00:20:21.404Z,9
2022-10-11T00:21:21.418Z,9
2022-10-11T00:22:21.419Z,11
2022-10-11T00:23:21.405Z,11
2022-10-11T00:24:21.406Z,10
2022-10-11T00:25:21.419Z,11
2022-10-11T00:26:21.420Z,12
2022-10-11T00:27:21.407Z,12
2022-10-11T00:28:21.407Z,13
2022-10-11T00:29:21.421Z,12
2022-10-11T00:30:21.421Z,14
2022-10-11T00:31:24.428Z,13
2022-10-11T00:32:21.421Z,13
2022-10-11T00:33:21.422Z,11
2022-10-11T00:34:21.422Z,12
2022-10-11T00:35:21.409Z,12
2022-10-11T00:36:21.423Z,12
2022-10-11T00:37:21.424Z,11
2022-10-11T00:38:21.423Z,12
2022-10-11T00:39:21.411Z,11
2022-10-11T00:40:21.424Z,14
2022-10-11T00:41:21.425Z,14
2022-10-11T00:42:21.425Z,13
2022-10-11T00:43:21.412Z,16
2022-10-11T00:44:21.425Z,17
2022-10-11T00:45:21.426Z,13
2022-10-11T00:46:21.413Z,14
2022-10-11T00:47:21.413Z,16
2022-10-11T00:48:21.427Z,12
2022-10-11T00:49:21.427Z,13
2022-10-11T00:50:21.414Z,14
2022-10-11T00:51:21.428Z,16
2022-10-11T00:52:21.428Z,17
2022-10-11T00:53:21.428Z,18
2022-10-11T00:54:21.428Z,17
2022-10-11T00:55:21.429Z,16
2022-10-11T00:56:21.430Z,15
2022-10-11T00:57:21.429Z,16
2022-10-11T00:58:21.417Z,17
2022-10-11T00:59:21.430Z,15
2022-10-11T01:00:21.431Z,18
2022-10-11T01:01:21.418Z,14
2022-10-11T01:02:21.418Z,13
2022-10-11T01:03:21.431Z,13
2022-10-11T01:04:21.432Z,13
2022-10-11T01:05:21.419Z,12
2022-10-11T01:06:21.419Z,11
2022-10-11T01:07:21.433Z,12
2022-10-11T01:09:21.420Z,13
2022-10-11T01:10:21.434Z,9
2022-10-11T01:11:21.434Z,6
2022-10-11T01:12:21.434Z,7
2022-10-11T01:13:21.434Z,8
2022-10-11T01:14:21.435Z,7
2022-10-11T01:15:21.436Z,13
2022-10-11T01:16:21.435Z,10
2022-10-11T01:17:21.423Z,11
2022-10-11T01:18:21.436Z,10
2022-10-11T01:19:21.437Z,10
2022-10-11T01:20:21.424Z,11
2022-10-11T01:21:21.424Z,11
2022-10-11T01:22:21.437Z,10
2022-10-11T01:23:21.438Z,10
2022-10-11T01:24:21.425Z,12
2022-10-11T01:25:21.503Z,12
2022-10-11T01:26:21.439Z,12
2022-10-11T01:27:21.439Z,13
2022-10-11T01:28:21.426Z,12
2022-10-11T01:29:21.440Z,14
2022-10-11T01:30:21.440Z,15
2022-10-11T01:31:21.440Z,13
2022-10-11T01:32:21.427Z,18
2022-10-11T01:33:21.441Z,13
2022-10-11T01:34:21.442Z,14
2022-10-11T01:35:21.441Z,14
2022-10-11T01:36:21.428Z,12
2022-10-11T01:37:21.442Z,12
2022-10-11T01:38:21.443Z,13
2022-10-11T01:39:21.429Z,14
2022-10-11T01:40:21.430Z,14
2022-10-11T01:41:21.443Z,17
2022-10-11T01:42:21.444Z,15
2022-10-11T01:43:21.431Z,18
2022-10-11T01:44:21.431Z,19
2022-10-11T01:45:21.444Z,19
2022-10-11T01:46:21.445Z,16
2022-10-11T01:47:21.432Z,18
2022-10-11T01:48:21.445Z,17
2022-10-11T01:49:21.446Z,18
2022-10-11T01:50:21.446Z,14
2022-10-11T01:51:21.433Z,18
2022-10-11T01:52:21.446Z,17
2022-10-11T01:53:21.447Z,14
2022-10-11T01:54:21.447Z,14
2022-10-11T01:55:21.434Z,13
2022-10-11T01:56:21.448Z,13
2022-10-11T01:57:21.449Z,13
2022-10-11T01:58:21.448Z,15
2022-10-11T01:59:21.435Z,17
2022-10-11T02:00:21.449Z,17
2022-10-11T02:01:21.450Z,18
2022-10-11T02:02:21.436Z,17
2022-10-11T02:03:21.436Z,17
2022-10-11T02:04:21.450Z,18
2022-10-11T02:05:21.450Z,17
2022-10-11T02:06:21.437Z,18
2022-10-11T02:07:21.451Z,17
2022-10-11T02:08:21.451Z,18
2022-10-11T02:09:21.451Z,17
2022-10-11T02:10:21.451Z,17
2022-10-11T02:11:21.452Z,14
2022-10-11T02:12:21.453Z,14
2022-10-11T02:13:21.453Z,14
2022-10-11T02:14:21.440Z,15
2022-10-11T02:15:21.453Z,18
2022-10-11T02:16:21.454Z,13
2022-10-11T02:17:21.441Z,13
2022-10-11T02:18:21.441Z,17
2022-10-11T02:19:21.454Z,17
2022-10-11T02:20:21.455Z,19
2022-10-11T02:21:21.442Z,17
2022-10-11T02:22:21.505Z,15
2022-10-11T02:23:21.456Z,16
2022-10-11T02:24:21.456Z,16
2022-10-11T02:25:21.443Z,20
2022-10-11T02:26:21.457Z,18
2022-10-11T02:27:21.457Z,16
2022-10-11T02:28:21.457Z,17
2022-10-11T02:29:21.444Z,16
2022-10-11T02:30:21.458Z,20
2022-10-11T02:31:21.458Z,20
2022-10-11T02:32:21.458Z,16
2022-10-11T02:33:21.445Z,17
2022-10-11T02:34:21.499Z,17
2022-10-11T02:35:21.460Z,17
2022-10-11T02:36:21.446Z,15
2022-10-11T02:37:21.447Z,15
2022-10-11T02:38:21.460Z,17
2022-10-11T02:39:21.461Z,15
2022-10-11T02:40:21.447Z,14
2022-10-11T02:41:21.461Z,14
2022-10-11T02:42:21.461Z,14
2022-10-11T02:43:21.461Z,17
2022-10-11T02:44:21.449Z,14
2022-10-11T02:45:21.462Z,16
2022-10-11T02:46:21.462Z,15
2022-10-11T02:47:21.463Z,14
2022-10-11T02:48:21.450Z,14
2022-10-11T02:49:21.463Z,13
2022-10-11T02:50:21.464Z,12
2022-10-11T02:51:21.464Z,12
2022-10-11T02:52:21.451Z,12
2022-10-11T02:53:21.464Z,13
2022-10-11T02:54:21.465Z,13
2022-10-11T02:55:21.465Z,13
2022-10-11T02:56:21.452Z,12
2022-10-11T02:57:21.466Z,16
2022-10-11T02:58:21.466Z,13
2022-10-11T02:59:21.453Z,12
2022-10-11T03:00:21.453Z,14
2022-10-11T03:01:21.467Z,14
2022-10-11T03:02:21.468Z,13
2022-10-11T03:03:21.454Z,13
2022-10-11T03:04:21.468Z,15
2022-10-11T03:05:21.468Z,15
2022-10-11T03:06:21.468Z,15
2022-10-11T03:07:21.456Z,17
2022-10-11T03:08:21.469Z,15
2022-10-11T03:09:21.470Z,18
2022-10-11T03:10:21.470Z,18
2022-10-11T03:11:21.457Z,17
2022-10-11T03:12:21.470Z,18
2022-10-11T03:13:21.471Z,20
2022-10-11T03:14:21.471Z,17
2022-10-11T03:15:21.458Z,18
2022-10-11T03:16:21.472Z,20
2022-10-11T03:17:21.472Z,19
2022-10-11T03:18:21.459Z,18
2022-10-11T03:19:21.459Z,18
2022-10-11T03:20:21.473Z,21
2022-10-11T03:21:21.473Z,18
2022-10-11T03:22:21.460Z,18
2022-10-11T03:23:21.474Z,16
2022-10-11T03:24:21.474Z,15
2022-10-11T03:25:21.474Z,21
2022-10-11T03:26:21.461Z,17
2022-10-11T03:27:21.475Z,15
2022-10-11T03:28:21.476Z,15
2022-10-11T03:29:21.475Z,17
2022-10-11T03:30:21.463Z,20
2022-10-11T03:31:21.476Z,17
2022-10-11T03:32:21.477Z,17
2022-10-11T03:33:21.464Z,17
2022-10-11T03:34:21.464Z,22
2022-10-11T03:35:21.477Z,21
2022-10-11T03:36:21.478Z,21
2022-10-11T03:37:21.465Z,25
2022-10-11T03:38:21.465Z,19
2022-10-11T03:39:21.478Z,21
2022-10-11T03:40:21.479Z,19
2022-10-11T03:41:21.466Z,21
2022-10-11T03:42:21.479Z,20
2022-10-11T03:43:21.480Z,20
2022-10-11T03:44:21.480Z,18
2022-10-11T03:45:21.467Z,20
2022-10-11T03:46:21.481Z,22
2022-10-11T03:47:21.482Z,21
2022-10-11T03:48:21.481Z,22
2022-10-11T03:49:21.469Z,24
2022-10-11T03:50:21.482Z,22
2022-10-11T03:51:21.483Z,20
2022-10-11T03:52:21.470Z,20
2022-10-11T03:53:21.470Z,23
2022-10-11T03:54:21.483Z,24
2022-10-11T03:55:21.484Z,24
2022-10-11T03:56:21.471Z,23
2022-10-11T03:57:21.471Z,24
2022-10-11T03:58:21.484Z,23
2022-10-11T03:59:21.485Z,23
2022-10-11T04:00:21.472Z,25
2022-10-11T04:01:21.485Z,23
2022-10-11T04:02:21.486Z,23
2022-10-11T04:03:21.486Z,25
2022-10-11T04:04:21.473Z,23
2022-10-11T04:05:21.487Z,21
2022-10-11T04:06:21.488Z,21
2022-10-11T04:07:21.487Z,23
2022-10-11T04:08:21.474Z,21
2022-10-11T04:09:21.488Z,20
2022-10-11T04:10:21.489Z,20
2022-10-11T04:11:21.475Z,21
2022-10-11T04:12:21.476Z,22
2022-10-11T04:13:21.489Z,24
2022-10-11T04:14:21.490Z,24
2022-10-11T04:15:21.477Z,30
2022-10-11T04:16:21.477Z,24
2022-10-11T04:17:21.490Z,22
2022-10-11T04:18:21.491Z,18
2022-10-11T04:19:21.478Z,16
2022-10-11T04:20:21.491Z,17
2022-10-11T04:21:21.492Z,16
2022-10-11T04:22:21.492Z,17
2022-10-11T04:23:21.479Z,17
2022-10-11T04:24:21.493Z,18
2022-10-11T04:25:21.493Z,13
2022-10-11T04:26:21.493Z,15
2022-10-11T04:27:21.480Z,16
2022-10-11T04:28:21.494Z,19
2022-10-11T04:29:21.495Z,13
2022-10-11T04:30:21.505Z,16
2022-10-11T04:31:21.482Z,15
2022-10-11T04:32:21.495Z,19
2022-10-11T04:33:21.496Z,18
2022-10-11T04:34:21.483Z,19
2022-10-11T04:35:21.483Z,20
2022-10-11T04:36:21.496Z,19
2022-10-11T04:37:21.496Z,16
2022-10-11T04:38:21.484Z,14
2022-10-11T04:39:21.497Z,14
2022-10-11T04:40:21.497Z,16
2022-10-11T04:41:21.498Z,14
2022-10-11T04:42:21.485Z,14
2022-10-11T04:43:21.498Z,13
2022-10-11T04:44:21.500Z,16
2022-10-11T04:45:21.499Z,16
2022-10-11T04:46:21.486Z,21
2022-10-11T04:47:21.500Z,19
2022-10-11T04:48:21.501Z,18
2022-10-11T04:49:21.487Z,19
2022-10-11T04:50:21.488Z,15
2022-10-11T04:51:21.501Z,15
2022-10-11T04:52:21.502Z,15
2022-10-11T04:53:21.488Z,22
2022-10-11T04:54:21.489Z,23
2022-10-11T04:55:21.502Z,27
2022-10-11T04:56:21.567Z,20
2022-10-11T04:57:21.490Z,28
2022-10-11T04:58:21.503Z,26
2022-10-11T04:59:21.503Z,23
2022-10-11T05:00:21.504Z,33
2022-10-11T05:01:21.491Z,25
2022-10-11T05:02:21.504Z,32
2022-10-11T05:03:21.505Z,30
2022-10-11T05:04:21.505Z,34
2022-10-11T05:05:21.492Z,27
2022-10-11T05:06:21.506Z,20
2022-10-11T05:07:21.506Z,20
2022-10-11T05:08:21.519Z,17
2022-10-11T05:09:21.493Z,22
2022-10-11T05:10:21.507Z,24
2022-10-11T05:11:21.508Z,23
2022-10-11T05:12:21.494Z,27
2022-10-11T05:13:21.495Z,24
2022-10-11T05:14:21.508Z,17
2022-10-11T05:15:21.534Z,28
2022-10-11T05:16:21.496Z,23
2022-10-11T05:17:21.509Z,26
2022-10-11T05:18:21.510Z,36
2022-10-11T05:19:21.510Z,29
2022-10-11T05:20:21.497Z,35
2022-10-11T05:21:21.510Z,30
2022-10-11T05:22:21.511Z,38
2022-10-11T05:23:21.511Z,27
2022-10-11T05:24:21.498Z,29
2022-10-11T05:25:21.512Z,26
2022-10-11T05:26:21.512Z,25
2022-10-11T05:27:21.499Z,27
2022-10-11T05:28:21.499Z,28
2022-10-11T05:29:21.513Z,29
2022-10-11T05:30:21.514Z,33
2022-10-11T05:31:21.500Z,31
2022-10-11T05:32:21.501Z,35
2022-10-11T05:33:21.514Z,33
2022-10-11T05:34:21.514Z,34
2022-10-11T05:35:21.502Z,27
2022-10-11T05:36:21.515Z,29
2022-10-11T05:37:21.515Z,30
2022-10-11T05:38:21.516Z,24
2022-10-11T05:39:21.516Z,30
2022-10-11T05:40:21.516Z,28
2022-10-11T05:41:21.517Z,33
2022-10-11T05:42:21.517Z,31
2022-10-11T05:43:21.504Z,32
2022-10-11T05:44:21.518Z,33
2022-10-11T05:45:21.518Z,35
2022-10-11T05:46:21.505Z,35
2022-10-11T05:47:21.505Z,36
2022-10-11T05:48:21.519Z,39
2022-10-11T05:49:21.520Z,34
2022-10-11T05:50:21.506Z,37
2022-10-11T05:51:21.546Z,35
2022-10-11T05:52:21.520Z,36
2022-10-11T05:53:21.521Z,29
2022-10-11T05:54:21.508Z,37
2022-10-11T05:55:21.521Z,37
2022-10-11T05:56:21.522Z,34
2022-10-11T05:57:21.522Z,34
2022-10-11T05:58:21.509Z,34
2022-10-11T05:59:21.522Z,36
2022-10-11T06:00:21.523Z,42
2022-10-11T06:01:21.523Z,38
2022-10-11T06:02:21.510Z,34
2022-10-11T06:03:21.524Z,38
2022-10-11T06:04:21.524Z,32
2022-10-11T06:05:21.511Z,36
2022-10-11T06:06:21.511Z,29
2022-10-11T06:07:21.525Z,33
2022-10-11T06:08:21.526Z,31
2022-10-11T06:09:21.512Z,39
2022-10-11T06:10:21.513Z,33
2022-10-11T06:11:21.526Z,36
2022-10-11T06:12:21.526Z,37
2022-10-11T06:13:21.514Z,35
2022-10-11T06:14:21.527Z,30
2022-10-11T06:15:21.527Z,32
2022-10-11T06:16:21.528Z,36
2022-10-11T06:17:21.528Z,34
2022-10-11T06:18:21.528Z,34
2022-10-11T06:19:21.529Z,32
2022-10-11T06:20:21.529Z,31
2022-10-11T06:21:21.516Z,40
2022-10-11T06:22:21.530Z,40
2022-10-11T06:23:21.531Z,38
2022-10-11T06:24:21.517Z,37
2022-10-11T06:25:21.518Z,35
2022-10-11T06:26:21.531Z,36
2022-10-11T06:27:21.532Z,37
2022-10-11T06:28:21.518Z,37
2022-10-11T06:29:21.597Z,40
2022-10-11T06:30:21.532Z,36
2022-10-11T06:31:21.533Z,37
2022-10-11T06:32:21.520Z,38
2022-10-11T06:33:21.533Z,34
2022-10-11T06:34:21.534Z,35
2022-10-11T06:35:21.534Z,31
2022-10-11T06:36:21.521Z,32
2022-10-11T06:37:21.534Z,33
2022-10-11T06:38:21.535Z,41
2022-10-11T06:39:21.535Z,43
2022-10-11T06:40:21.522Z,48
2022-10-11T06:41:21.585Z,44
2022-10-11T06:42:21.537Z,40
2022-10-11T06:43:21.523Z,44
2022-10-11T06:44:21.524Z,42
2022-10-11T06:45:21.537Z,47
2022-10-11T06:46:21.538Z,31
2022-10-11T06:47:21.525Z,39
2022-10-11T06:48:21.538Z,43
2022-10-11T06:49:21.538Z,31
2022-10-11T06:50:21.539Z,30
2022-10-11T06:51:21.526Z,33
2022-10-11T06:52:21.662Z,33
2022-10-11T06:53:21.540Z,35
2022-10-11T06:54:21.540Z,35
2022-10-11T06:55:21.527Z,30
2022-10-11T06:56:21.541Z,33
2022-10-11T06:57:21.541Z,36
2022-10-11T06:58:21.541Z,30
2022-10-11T06:59:21.528Z,48
2022-10-11T07:00:21.542Z,36
2022-10-11T07:01:21.543Z,37
2022-10-11T07:02:21.529Z,32
2022-10-11T07:03:21.530Z,30
2022-10-11T07:04:21.543Z,34
2022-10-11T07:05:21.544Z,39
2022-10-11T07:06:21.531Z,45
2022-10-11T07:07:21.531Z,48
2022-10-11T07:08:21.544Z,37
2022-10-11T07:09:21.545Z,38
2022-10-11T07:10:21.532Z,44
2022-10-11T07:11:21.545Z,50
2022-10-11T07:12:21.545Z,44
2022-10-11T07:13:21.546Z,41
2022-10-11T07:14:21.533Z,42
2022-10-11T07:15:21.547Z,41
2022-10-11T07:16:21.548Z,32
2022-10-11T07:17:21.547Z,35
2022-10-11T07:18:21.534Z,37
2022-10-11T07:19:21.548Z,37
2022-10-11T07:20:21.549Z,36
2022-10-11T07:21:21.535Z,43
2022-10-11T07:22:21.536Z,40
2022-10-11T07:23:21.549Z,44
2022-10-11T07:24:21.550Z,41
2022-10-11T07:25:21.537Z,44
2022-10-11T07:26:21.550Z,46
2022-10-11T07:27:21.550Z,32
2022-10-11T07:28:21.551Z,33
2022-10-11T07:29:21.538Z,47
2022-10-11T07:30:21.551Z,52
2022-10-11T07:31:21.617Z,51
2022-10-11T07:32:21.552Z,45
2022-10-11T07:34:21.553Z,45
2022-10-11T07:35:21.554Z,43
2022-10-11T07:36:21.553Z,45
2022-10-11T07:37:21.541Z,52
2022-10-11T07:38:21.603Z,55
2022-10-11T07:39:21.555Z,48
2022-10-11T07:40:21.541Z,60
2022-10-11T07:41:21.542Z,54
2022-10-11T07:42:21.555Z,51
2022-10-11T07:43:21.556Z,50
2022-10-11T07:44:21.543Z,54
2022-10-11T07:45:21.556Z,53
2022-10-11T07:46:21.556Z,50
2022-10-11T07:47:21.557Z,49
2022-10-11T07:48:21.544Z,47
2022-10-11T07:49:21.557Z,50
2022-10-11T07:50:21.585Z,60
2022-10-11T07:51:21.558Z,48
2022-10-11T07:52:27.624Z,44
2022-10-11T07:53:21.559Z,41
2022-10-11T07:54:21.560Z,42
2022-10-11T07:55:21.559Z,42
2022-10-11T07:56:21.547Z,53
2022-10-11T07:57:21.560Z,45
2022-10-11T07:58:21.561Z,43
2022-10-11T07:59:21.547Z,45
2022-10-11T08:00:21.548Z,54
2022-10-11T08:01:21.561Z,43
2022-10-11T08:02:21.562Z,41
2022-10-11T08:03:21.549Z,43
2022-10-11T08:04:21.549Z,44
2022-10-11T08:05:21.562Z,48
2022-10-11T08:06:21.563Z,42
2022-10-11T08:07:21.550Z,44
2022-10-11T08:08:21.564Z,40
2022-10-11T08:09:21.564Z,45
2022-10-11T08:10:21.564Z,52
2022-10-11T08:11:21.551Z,53
2022-10-11T08:12:21.565Z,52
2022-10-11T08:13:21.566Z,54
2022-10-11T08:14:21.565Z,53
2022-10-11T08:15:21.553Z,64
2022-10-11T08:16:21.566Z,59
2022-10-11T08:17:21.567Z,52
2022-10-11T08:18:21.554Z,55
2022-10-11T08:19:21.554Z,51
2022-10-11T08:20:21.567Z,42
2022-10-11T08:21:21.568Z,45
2022-10-11T08:22:21.555Z,42
2022-10-11T08:23:21.610Z,45
2022-10-11T08:24:21.569Z,36
2022-10-11T08:25:21.569Z,31
2022-10-11T08:26:21.556Z,31
2022-10-11T08:27:21.570Z,32
2022-10-11T08:28:21.570Z,36
2022-10-11T08:29:21.570Z,41
2022-10-11T08:30:21.557Z,48
2022-10-11T08:31:21.571Z,40
2022-10-11T08:32:21.572Z,33
2022-10-11T08:33:21.571Z,34
2022-10-11T08:34:21.559Z,29
2022-10-11T08:35:21.622Z,36
2022-10-11T08:36:21.573Z,41
2022-10-11T08:37:21.560Z,36
2022-10-11T08:38:21.560Z,40
2022-10-11T08:39:21.573Z,43
2022-10-11T08:40:21.574Z,51
2022-10-11T08:41:21.561Z,50
2022-10-11T08:42:21.575Z,50
2022-10-11T08:43:21.575Z,52
2022-10-11T08:44:21.575Z,52
2022-10-11T08:45:21.562Z,56
2022-10-11T08:46:21.576Z,48
2022-10-11T08:47:21.622Z,52
2022-10-11T08:48:21.577Z,55
2022-10-11T08:49:21.564Z,53
2022-10-11T08:50:21.577Z,51
2022-10-11T08:51:21.578Z,56
2022-10-11T08:52:25.376Z,54
2022-10-11T08:53:21.565Z,50
2022-10-11T08:54:21.579Z,49
2022-10-11T08:55:21.580Z,44
2022-10-11T08:56:21.566Z,45
2022-10-11T08:57:21.566Z,43
2022-10-11T08:58:21.580Z,43
2022-10-11T08:59:21.581Z,46
2022-10-11T09:00:21.567Z,58
2022-10-11T09:01:21.568Z,49
2022-10-11T09:02:21.581Z,43
2022-10-11T09:03:21.582Z,43
2022-10-11T09:04:21.569Z,45
2022-10-11T09:05:21.583Z,45
2022-10-11T09:06:21.583Z,43
2022-10-11T09:07:21.583Z,47
2022-10-11T09:08:21.570Z,51
2022-10-11T09:09:21.584Z,56
2022-10-11T09:10:21.585Z,49
2022-10-11T09:11:21.584Z,54
2022-10-11T09:12:21.572Z,55
2022-10-11T09:13:21.585Z,59
2022-10-11T09:14:21.586Z,57
2022-10-11T09:15:21.573Z,57
2022-10-11T09:16:21.573Z,51
2022-10-11T09:17:21.587Z,52
2022-10-11T09:18:21.587Z,51
2022-10-11T09:19:21.574Z,50
2022-10-11T09:20:21.652Z,52
2022-10-11T09:21:21.588Z,48
2022-10-11T09:22:21.588Z,45
2022-10-11T09:23:21.575Z,47
2022-10-11T09:24:21.589Z,49
2022-10-11T09:25:21.589Z,50
2022-10-11T09:26:21.590Z,43
2022-10-11T09:27:21.577Z,49
2022-10-11T09:28:21.590Z,41
2022-10-11T09:29:21.591Z,48
2022-10-11T09:30:21.591Z,59
2022-10-11T09:31:21.578Z,53
2022-10-11T09:32:21.617Z,60
2022-10-11T09:33:21.593Z,67
2022-10-11T09:34:21.579Z,71
2022-10-11T09:35:21.580Z,72
2022-10-11T09:36:21.593Z,75
2022-10-11T09:37:21.594Z,81
2022-10-11T09:38:21.581Z,67
2022-10-11T09:39:21.594Z,64
2022-10-11T09:40:21.594Z,59
2022-10-11T09:41:21.595Z,60
2022-10-11T09:42:21.582Z,60
2022-10-11T09:43:21.596Z,55
2022-10-11T09:44:21.596Z,55
2022-10-11T09:45:21.596Z,60
2022-10-11T09:46:21.584Z,55
2022-10-11T09:47:21.597Z,49
2022-10-11T09:48:21.598Z,43
2022-10-11T09:49:21.598Z,48
2022-10-11T09:50:21.585Z,54
2022-10-11T09:51:21.598Z,54
2022-10-11T09:52:21.599Z,47
2022-10-11T09:53:21.586Z,54
2022-10-11T09:54:21.586Z,53
2022-10-11T09:55:21.600Z,51
2022-10-11T09:56:21.601Z,49
2022-10-11T09:57:21.588Z,57
2022-10-11T09:58:21.642Z,52
2022-10-11T09:59:21.601Z,55
2022-10-11T10:00:21.602Z,60
2022-10-11T10:01:21.589Z,55
2022-10-11T10:02:21.603Z,55
2022-10-11T10:03:21.603Z,61
2022-10-11T10:04:21.603Z,60
2022-10-11T10:05:21.591Z,50
2022-10-11T10:06:21.604Z,50
2022-10-11T10:07:21.605Z,52
2022-10-11T10:08:21.605Z,48
2022-10-11T10:09:21.592Z,59
2022-10-11T10:10:21.606Z,71
2022-10-11T10:11:21.607Z,68
2022-10-11T10:12:21.593Z,59
2022-10-11T10:13:21.594Z,64
2022-10-11T10:14:21.608Z,60
2022-10-11T10:15:21.608Z,64
2022-10-11T10:16:21.595Z,62
2022-10-11T10:17:21.595Z,66
2022-10-11T10:18:21.609Z,61
2022-10-11T10:19:21.609Z,58
2022-10-11T10:20:21.597Z,65
2022-10-11T10:21:21.610Z,56
2022-10-11T10:22:21.610Z,57
2022-10-11T10:23:21.611Z,58
2022-10-11T10:24:21.598Z,51
2022-10-11T10:25:21.612Z,51
2022-10-11T10:26:21.613Z,55
2022-10-11T10:27:21.612Z,48
2022-10-11T10:28:21.600Z,54
2022-10-11T10:29:21.613Z,53
2022-10-11T10:30:21.614Z,55
2022-10-11T10:31:21.601Z,56
2022-10-11T10:32:21.601Z,65
2022-10-11T10:33:21.615Z,69
2022-10-11T10:34:21.616Z,71
2022-10-11T10:35:21.602Z,54
2022-10-11T10:36:21.603Z,55
2022-10-11T10:37:21.616Z,57
2022-10-11T10:38:21.617Z,50
2022-10-11T10:39:21.604Z,54
2022-10-11T10:40:21.618Z,58
2022-10-11T10:41:21.618Z,72
2022-10-11T10:42:21.618Z,57
2022-10-11T10:43:21.606Z,61
2022-10-11T10:44:21.619Z,70
2022-10-11T10:45:21.620Z,70
2022-10-11T10:46:21.620Z,68
2022-10-11T10:47:21.607Z,64
2022-10-11T10:48:21.621Z,84
2022-10-11T10:49:21.622Z,80
2022-10-11T10:50:21.608Z,65
2022-10-11T10:51:21.609Z,58
2022-10-11T10:52:21.622Z,69
2022-10-11T10:53:21.623Z,73
2022-10-11T10:54:21.610Z,61
2022-10-11T10:55:21.610Z,58
2022-10-11T10:56:21.624Z,62
2022-10-11T10:57:21.624Z,62
2022-10-11T10:58:21.612Z,71
2022-10-11T10:59:21.625Z,82
2022-10-11T11:00:21.625Z,77
2022-10-11T11:01:21.626Z,66
2022-10-11T11:02:21.613Z,62
2022-10-11T11:03:21.627Z,71
2022-10-11T11:04:21.628Z,71
2022-10-11T11:05:21.627Z,73
2022-10-11T11:06:21.615Z,90
2022-10-11T11:07:21.628Z,82
2022-10-11T11:08:21.629Z,82
2022-10-11T11:09:21.629Z,75
2022-10-11T11:10:21.616Z,77
2022-10-11T11:11:21.630Z,74
2022-10-11T11:12:21.631Z,74
2022-10-11T11:13:21.618Z,73
2022-10-11T11:14:21.618Z,75
2022-10-11T11:15:21.631Z,82
2022-10-11T11:16:21.632Z,65
2022-10-11T11:17:21.619Z,69
2022-10-11T11:18:21.658Z,69
2022-10-11T11:19:21.633Z,69
2022-10-11T11:20:21.633Z,71
2022-10-11T11:21:21.621Z,51
2022-10-11T11:22:21.634Z,46
2022-10-11T11:23:21.635Z,50
2022-10-11T11:24:21.635Z,61
2022-10-11T11:25:21.622Z,70
2022-10-11T11:26:21.636Z,59
2022-10-11T11:27:21.637Z,61
2022-10-11T11:28:21.636Z,52
2022-10-11T11:29:21.624Z,60
2022-10-11T11:30:21.687Z,69
2022-10-11T11:31:21.639Z,60
2022-10-11T11:32:21.625Z,54
2022-10-11T11:33:21.625Z,56
2022-10-11T11:34:21.639Z,48
2022-10-11T11:35:21.640Z,51
2022-10-11T11:36:21.626Z,51
2022-10-11T11:37:21.640Z,53
2022-10-11T11:38:21.640Z,43
2022-10-11T11:39:21.641Z,41
2022-10-11T11:40:21.628Z,38
2022-10-11T11:41:21.642Z,41
2022-10-11T11:42:21.708Z,49
2022-10-11T11:43:21.642Z,44
2022-10-11T11:44:21.630Z,43
2022-10-11T11:45:21.643Z,51
2022-10-11T11:46:21.644Z,49
2022-10-11T11:47:21.644Z,51
2022-10-11T11:48:21.631Z,47
2022-10-11T11:49:21.645Z,47
2022-10-11T11:50:21.646Z,52
2022-10-11T11:51:21.632Z,56
2022-10-11T11:52:21.633Z,50
2022-10-11T11:53:21.647Z,55
2022-10-11T11:54:21.711Z,51
2022-10-11T11:55:21.634Z,53
2022-10-11T11:56:21.647Z,56
2022-10-11T11:57:21.648Z,57
2022-10-11T11:58:21.648Z,63
2022-10-11T11:59:21.636Z,63
2022-10-11T12:00:21.650Z,69
2022-10-11T12:01:21.650Z,60
2022-10-11T12:02:21.650Z,67
2022-10-11T12:03:21.637Z,59
2022-10-11T12:04:21.651Z,45
2022-10-11T12:05:21.652Z,50
2022-10-11T12:06:21.638Z,57
2022-10-11T12:07:21.639Z,57
2022-10-11T12:08:21.652Z,58
2022-10-11T12:09:21.653Z,60
2022-10-11T12:10:21.640Z,55
2022-10-11T12:11:21.641Z,54
2022-10-11T12:12:21.654Z,52
2022-10-11T12:13:21.656Z,49
2022-10-11T12:14:21.642Z,53
2022-10-11T12:15:21.655Z,61
2022-10-11T12:16:21.656Z,55
2022-10-11T12:17:21.656Z,53
2022-10-11T12:18:21.643Z,59
2022-10-11T12:19:21.657Z,59
2022-10-11T12:20:21.710Z,58
2022-10-11T12:21:21.658Z,63
2022-10-11T12:22:21.645Z,58
2022-10-11T12:23:21.659Z,59
2022-10-11T12:24:21.659Z,57
2022-10-11T12:25:21.659Z,57
2022-10-11T12:26:21.647Z,61
2022-10-11T12:27:21.660Z,56
2022-10-11T12:28:21.661Z,45
2022-10-11T12:29:21.648Z,41
2022-10-11T12:30:21.648Z,45
2022-10-11T12:31:21.662Z,47
2022-10-11T12:32:21.663Z,45
2022-10-11T12:33:21.650Z,36
2022-10-11T12:34:21.663Z,40
2022-10-11T12:35:21.664Z,53
2022-10-11T12:36:21.664Z,58
2022-10-11T12:37:21.651Z,67
2022-10-11T12:38:21.665Z,65
2022-10-11T12:39:21.732Z,52
2022-10-11T12:40:21.666Z,60
2022-10-11T12:41:21.653Z,62
2022-10-11T12:42:21.667Z,55
2022-10-11T12:43:21.668Z,53
2022-10-11T12:44:21.668Z,54
2022-10-11T12:45:21.655Z,61
2022-10-11T12:46:21.668Z,49
2022-10-11T12:47:21.669Z,38
2022-10-11T12:48:21.656Z,39
2022-10-11T12:49:21.657Z,51
2022-10-11T12:50:21.670Z,52
2022-10-11T12:51:21.671Z,53
2022-10-11T12:52:21.658Z,49
2022-10-11T12:53:21.671Z,49
2022-10-11T12:54:21.672Z,50
2022-10-11T12:55:21.672Z,46
2022-10-11T12:56:21.660Z,46
2022-10-11T12:57:21.673Z,45
2022-10-11T12:58:21.717Z,49
2022-10-11T12:59:21.674Z,54
2022-10-11T13:00:21.661Z,61
2022-10-11T13:01:21.675Z,57
2022-10-11T13:02:21.676Z,55
2022-10-11T13:03:21.676Z,58
2022-10-11T13:04:21.663Z,56
2022-10-11T13:05:21.676Z,63
2022-10-11T13:06:21.678Z,54
2022-10-11T13:07:21.664Z,53
2022-10-11T13:08:21.665Z,59
2022-10-11T13:09:21.678Z,57
2022-10-11T13:10:21.720Z,55
2022-10-11T13:11:21.666Z,65
2022-10-11T13:12:21.679Z,48
2022-10-11T13:13:21.680Z,47
2022-10-11T13:14:21.680Z,45
2022-10-11T13:15:21.668Z,64
2022-10-11T13:16:21.681Z,71
2022-10-11T13:17:21.687Z,74
2022-10-11T13:18:21.682Z,66
2022-10-11T13:19:21.669Z,61
2022-10-11T13:20:21.683Z,75
2022-10-11T13:21:21.684Z,85
2022-10-11T13:22:21.684Z,75
2022-10-11T13:23:21.671Z,75
2022-10-11T13:24:21.684Z,75
2022-10-11T13:25:21.686Z,73
2022-10-11T13:26:21.672Z,74
2022-10-11T13:27:21.673Z,78
2022-10-11T13:28:21.686Z,64
2022-10-11T13:29:21.687Z,81
2022-10-11T13:30:21.674Z,81
2022-10-11T13:31:21.689Z,73
2022-10-11T13:32:21.688Z,69
2022-10-11T13:33:21.688Z,69
2022-10-11T13:34:21.676Z,76
2022-10-11T13:35:21.689Z,75
2022-10-11T13:36:21.690Z,55
2022-10-11T13:37:21.690Z,54
2022-10-11T13:38:21.677Z,50
2022-10-11T13:39:21.691Z,44
2022-10-11T13:40:21.692Z,54
2022-10-11T13:41:21.692Z,56
2022-10-11T13:42:21.679Z,56
2022-10-11T13:43:21.692Z,53
2022-10-11T13:44:21.693Z,52
2022-10-11T13:45:21.680Z,58
2022-10-11T13:46:21.680Z,60
2022-10-11T13:47:21.694Z,70
2022-10-11T13:48:21.695Z,77
2022-10-11T13:49:21.682Z,79
2022-10-11T13:50:21.695Z,76
2022-10-11T13:51:21.695Z,67
2022-10-11T13:52:21.696Z,56
2022-10-11T13:53:21.683Z,52
2022-10-11T13:54:21.697Z,79
2022-10-11T13:55:21.698Z,72
2022-10-11T13:56:21.698Z,67
2022-10-11T13:57:21.685Z,65
2022-10-11T13:58:21.698Z,73
2022-10-11T13:59:21.699Z,62
2022-10-11T14:00:21.686Z,55
2022-10-11T14:01:21.686Z,66
2022-10-11T14:02:21.700Z,73
2022-10-11T14:03:21.701Z,66
2022-10-11T14:04:21.688Z,59
2022-10-11T14:05:21.688Z,70
2022-10-11T14:06:21.701Z,65
2022-10-11T14:07:21.702Z,68
2022-10-11T14:08:21.689Z,63
2022-10-11T14:09:21.703Z,64
2022-10-11T14:10:21.703Z,62
2022-10-11T14:11:21.703Z,59
2022-10-11T14:12:21.691Z,57
2022-10-11T14:13:21.704Z,69
2022-10-11T14:14:21.705Z,61
2022-10-11T14:15:21.705Z,83
2022-10-11T14:16:21.692Z,69
2022-10-11T14:17:21.706Z,73